Time;durP1;ratioP1;P1;durP2;ratioP2;P2;SDS_P1;SDS_P2;PMS_P1;PMS_P2;Temp;Humidity;BMP_temperature;BMP_pressure;BME280_temperature;BME280_humidity;BME280_pressure;Samples;Min_cycle;Max_cycle;Signal;HPM_P1;HPM_P2
2021/12/02 00:00:23;;;;;;;98.90;30.80;;;;;;;4.82;67.93;99549.09;5146690;27;20366;-63
2021/12/02 00:02:48;;;;;;;106.88;30.20;;;;;;;5.20;66.90;99544.97;5146444;27;20062;-63
2021/12/02 00:05:14;;;;;;;51.17;22.30;;;;;;;5.25;65.82;99545.44;5146704;27;20031;-62
2021/12/02 00:07:39;;;;;;;49.17;21.70;;;;;;;5.05;66.45;99532.22;5146830;27;20202;-66
2021/12/02 00:10:05;;;;;;;52.30;21.42;;;;;;;5.05;66.71;99534.00;5146761;27;20023;-63
2021/12/02 00:12:31;;;;;;;46.05;18.92;;;;;;;4.93;63.86;99535.91;5146321;27;20030;-66
2021/12/02 00:14:59;;;;;;;41.20;18.50;;;;;;;4.47;66.84;99552.91;5146394;27;20035;-62
2021/12/02 00:17:28;;;;;;;43.58;18.80;;;;;;;4.29;68.86;99561.44;5146324;27;20035;-66
2021/12/02 00:23:04;;;;;;;;;;;;;;;4.31;68.81;99557.75;5146940;27;20033;-66
2021/12/02 00:25:29;;;;;;;104.80;33.93;;;;;;;4.55;68.34;99552.25;5106567;27;19919;-62
2021/12/02 00:27:57;;;;;;;103.13;33.37;;;;;;;4.60;68.52;99557.13;5146310;27;20047;-63
2021/12/02 00:30:23;;;;;;;81.70;29.55;;;;;;;4.70;68.21;99547.50;5146264;27;20031;-66
2021/12/02 00:32:49;;;;;;;67.45;24.38;;;;;;;4.83;67.43;99553.38;5145900;27;20042;-63
2021/12/02 00:35:16;;;;;;;56.30;22.50;;;;;;;5.04;66.49;99542.84;5146077;27;20019;-62
2021/12/02 00:37:44;;;;;;;62.15;24.70;;;;;;;4.99;66.60;99540.63;5145851;27;20039;-65
2021/12/02 00:40:09;;;;;;;53.53;21.87;;;;;;;4.91;67.03;99547.47;5145866;27;20019;-62
2021/12/02 00:42:35;;;;;;;59.07;22.50;;;;;;;5.04;66.61;99545.47;5144929;27;20374;-65
2021/12/02 00:45:03;;;;;;;50.63;21.15;;;;;;;4.91;66.24;99526.50;5145936;27;20205;-65
2021/12/02 00:47:28;;;;;;;48.63;20.60;;;;;;;5.00;66.39;99547.53;5145560;27;20019;-63
2021/12/02 00:49:54;;;;;;;60.08;24.33;;;;;;;4.90;67.10;99540.56;5145784;27;20027;-66
2021/12/02 00:52:20;;;;;;;54.77;23.23;;;;;;;4.85;67.64;99535.72;5145330;27;20043;-66
2021/12/02 00:54:47;;;;;;;62.67;29.00;;;;;;;5.06;66.82;99546.16;5145763;27;20313;-66
2021/12/02 00:57:13;;;;;;;68.83;27.83;;;;;;;5.06;66.39;99544.38;5145551;27;20059;-63
2021/12/02 00:59:40;;;;;;;59.33;26.85;;;;;;;5.02;66.29;99540.34;5145619;27;20340;-63
2021/12/02 01:02:07;;;;;;;68.05;29.80;;;;;;;5.09;66.20;99532.78;5145156;27;20050;-62
2021/12/02 01:04:33;;;;;;;66.47;29.40;;;;;;;5.03;66.43;99544.63;5145611;27;20031;-66
2021/12/02 01:06:58;;;;;;;70.37;28.43;;;;;;;4.98;66.79;99536.31;5145236;27;20023;-63
2021/12/02 01:09:24;;;;;;;66.55;28.90;;;;;;;4.73;67.61;99526.25;5145365;27;20094;-63
2021/12/02 01:11:50;;;;;;;62.20;26.43;;;;;;;4.56;68.38;99532.94;5145267;27;20039;-66
2021/12/02 01:14:16;;;;;;;61.57;25.13;;;;;;;4.66;68.55;99531.19;5145411;27;20042;-62
2021/12/02 01:16:42;;;;;;;50.33;22.60;;;;;;;4.60;67.96;99533.50;5145168;27;20038;-66
2021/12/02 01:19:08;;;;;;;60.35;25.08;;;;;;;4.76;67.18;99532.09;5145231;27;20140;-65
2021/12/02 01:21:37;;;;;;;54.88;23.15;;;;;;;4.54;67.63;99528.78;5144659;27;20023;-63
2021/12/02 01:24:05;;;;;;;65.80;23.80;;;;;;;4.55;67.85;99533.06;5144903;27;20031;-62
2021/12/02 01:26:32;;;;;;;58.93;24.50;;;;;;;4.71;66.74;99525.56;5145421;27;20042;-63
2021/12/02 01:28:58;;;;;;;61.33;23.52;;;;;;;4.25;68.29;99528.59;5144991;27;20050;-66
2021/12/02 01:31:29;;;;;;;53.30;20.57;;;;;;;4.07;69.23;99529.13;5144762;27;20035;-66
2021/12/02 01:33:55;;;;;;;90.87;27.20;;;;;;;4.33;68.56;99524.38;5144850;27;20057;-66
2021/12/02 01:36:23;;;;;;;52.30;22.37;;;;;;;4.47;67.93;99523.22;5145061;27;20035;-62
2021/12/02 01:38:49;;;;;;;49.90;20.53;;;;;;;4.59;65.92;99506.47;5144810;27;20309;-62
2021/12/02 01:41:15;;;;;;;44.73;20.40;;;;;;;4.54;65.47;99513.06;5144878;27;20065;-66
2021/12/02 01:43:46;;;;;;;48.37;20.07;;;;;;;4.23;65.38;99535.75;5144747;27;20041;-63
2021/12/02 01:46:13;;;;;;;43.50;19.53;;;;;;;4.12;66.43;99521.72;5144498;27;20054;-66
2021/12/02 01:48:41;;;;;;;43.23;18.20;;;;;;;4.08;67.44;99520.31;5144598;27;20029;-66
2021/12/02 01:51:10;;;;;;;45.30;18.97;;;;;;;4.09;67.59;99511.50;5144260;27;20095;-62
2021/12/02 01:53:39;;;;;;;56.20;23.20;;;;;;;4.15;67.49;99510.16;5144438;27;20035;-66
2021/12/02 01:56:13;;;;;;;45.60;21.20;;;;;;;4.20;67.13;99510.63;5144263;27;20031;-66
2021/12/02 01:58:43;;;;;;;40.90;18.13;;;;;;;4.11;66.49;99527.91;5144328;27;20102;-62
2021/12/02 02:01:15;;;;;;;44.50;20.00;;;;;;;4.08;67.31;99540.44;5144570;27;20035;-62
2021/12/02 02:03:41;;;;;;;39.53;17.97;;;;;;;4.08;67.83;99543.06;5144136;27;20047;-66
2021/12/02 02:06:08;;;;;;;41.97;16.63;;;;;;;4.15;68.00;99534.56;5144286;27;20084;-64
2021/12/02 02:08:35;;;;;;;35.80;14.90;;;;;;;4.07;68.73;99542.22;5144420;27;20242;-62
2021/12/02 02:11:01;;;;;;;33.87;15.10;;;;;;;3.99;69.49;99534.16;5143985;27;20031;-62
2021/12/02 02:13:26;;;;;;;34.23;14.17;;;;;;;4.14;68.79;99538.13;5144280;27;20057;-62
2021/12/02 02:15:53;;;;;;;31.43;13.03;;;;;;;4.09;69.23;99535.06;5144198;27;20083;-62
2021/12/02 02:18:23;;;;;;;34.73;14.17;;;;;;;3.82;70.24;99537.31;5144016;27;20102;-62
2021/12/02 02:20:59;;;;;;;29.90;13.67;;;;;;;3.66;70.84;99534.28;5143979;27;20312;-66
2021/12/02 02:23:26;;;;;;;31.10;13.83;;;;;;;3.88;70.32;99541.22;5143996;27;20221;-66
2021/12/02 02:25:52;;;;;;;31.23;13.77;;;;;;;4.14;67.09;99530.28;5144012;27;20031;-66
2021/12/02 02:28:18;;;;;;;28.60;12.77;;;;;;;4.09;67.86;99534.25;5144014;27;20061;-62
2021/12/02 02:30:43;;;;;;;28.77;12.73;;;;;;;4.08;67.72;99529.94;5143921;27;20328;-66
2021/12/02 02:33:11;;;;;;;27.53;12.87;;;;;;;4.18;67.40;99541.38;5143609;27;20263;-66
2021/12/02 02:35:37;;;;;;;46.40;15.20;;;;;;;4.18;67.89;99535.31;5143690;27;20062;-66
2021/12/02 02:38:03;;;;;;;31.20;13.63;;;;;;;4.17;67.72;99537.09;5143842;27;20027;-63
2021/12/02 02:40:30;;;;;;;37.23;14.87;;;;;;;4.06;67.75;99543.19;5143859;27;20031;-63
2021/12/02 02:42:59;;;;;;;35.70;16.90;;;;;;;3.72;69.19;99528.53;5143614;27;20030;-66
2021/12/02 02:45:25;;;;;;;31.00;15.33;;;;;;;3.99;68.63;99543.81;5143590;27;20227;-66
2021/12/02 02:47:52;;;;;;;28.83;14.20;;;;;;;3.99;68.94;99539.41;5143608;27;20095;-66
2021/12/02 02:50:17;;;;;;;29.97;13.90;;;;;;;4.10;66.69;99549.00;5143715;27;20030;-65
2021/12/02 02:52:45;;;;;;;23.97;12.40;;;;;;;3.98;67.43;99553.47;5143287;27;20362;-62
2021/12/02 02:55:15;;;;;;;23.20;10.90;;;;;;;3.94;66.19;99552.03;5143624;27;20076;-66
2021/12/02 02:57:53;;;;;;;25.47;12.07;;;;;;;3.78;66.20;99541.97;5143508;27;20039;-62
2021/12/02 03:00:26;;;;;;;27.77;11.63;;;;;;;3.70;66.69;99552.22;5143431;27;20037;-66
2021/12/02 03:07:55;;;;;;;26.00;12.03;;;;;;;3.39;67.47;99553.84;5143384;27;20054;-66
2021/12/02 03:10:40;;;;;;;23.15;10.75;;;;;;;3.29;65.57;99567.78;5143719;27;20031;-62
2021/12/02 03:13:21;;;;;;;23.43;10.87;;;;;;;2.58;69.35;99559.25;5143433;27;20067;-68
2021/12/02 03:18:36;;;;;;;26.67;10.40;;;;;;;2.50;73.59;99562.44;5143243;27;20031;-68
2021/12/02 03:21:02;;;;;;;62.40;14.93;;;;;;;2.62;72.13;99559.88;5143249;27;20193;-65
2021/12/02 03:23:27;;;;;;;83.40;18.73;;;;;;;2.93;71.33;99561.81;5142916;27;20115;-65
2021/12/02 03:25:53;;;;;;;44.67;13.10;;;;;;;3.10;69.47;99563.13;5142845;27;20031;-66
2021/12/02 03:28:18;;;;;;;24.17;10.50;;;;;;;3.12;67.47;99551.59;5143235;27;20325;-66
2021/12/02 03:30:44;;;;;;;27.07;10.93;;;;;;;3.04;69.50;99561.81;5143329;27;20023;-65
2021/12/02 03:33:09;;;;;;;32.97;12.07;;;;;;;3.09;69.74;99559.66;5142990;27;20023;-66
2021/12/02 03:35:35;;;;;;;28.13;12.10;;;;;;;3.05;70.06;99554.78;5143101;27;20027;-62
2021/12/02 03:38:00;;;;;;;37.53;11.67;;;;;;;3.09;69.93;99543.97;5143156;27;20263;-62
2021/12/02 03:40:26;;;;;;;26.90;11.97;;;;;;;3.23;69.53;99557.78;5124956;28;20321;-62
2021/12/02 03:42:53;;;;;;;42.33;18.40;;;;;;;3.31;69.92;99548.38;5142966;27;20035;-62
2021/12/02 03:45:23;;;;;;;34.10;15.03;;;;;;;3.27;69.69;99556.59;5142989;27;20092;-65
2021/12/02 03:47:49;;;;;;;70.33;21.43;;;;;;;3.56;68.40;99552.50;5142943;27;20054;-62
2021/12/02 03:50:15;;;;;;;36.07;15.23;;;;;;;3.21;67.66;99560.53;5142820;27;20026;-62
2021/12/02 03:52:40;;;;;;;27.10;11.50;;;;;;;2.64;69.74;99560.56;5142766;27;20043;-66
2021/12/02 03:55:06;;;;;;;22.67;10.57;;;;;;;2.71;68.61;99567.84;5143179;27;20027;-63
2021/12/02 03:57:32;;;;;;;24.50;10.60;;;;;;;2.66;69.16;99550.84;5142934;27;20266;-63
2021/12/02 03:59:59;;;;;;;23.20;10.30;;;;;;;2.70;69.79;99555.72;5142948;27;20023;-65
2021/12/02 04:02:25;;;;;;;21.47;8.90;;;;;;;2.71;70.49;99552.16;5142585;27;20272;-62
2021/12/02 04:04:50;;;;;;;19.93;9.33;;;;;;;2.69;69.36;99558.44;5142864;27;20062;-62
2021/12/02 04:07:23;;;;;;;17.87;9.07;;;;;;;2.77;69.19;99556.91;5142596;27;20225;-62
2021/12/02 04:09:49;;;;;;;26.73;9.63;;;;;;;2.78;68.91;99560.38;5142906;27;20305;-64
2021/12/02 04:12:29;;;;;;;20.00;9.63;;;;;;;2.55;70.68;99562.09;5142822;27;20137;-68
2021/12/02 04:15:11;;;;;;;19.30;9.17;;;;;;;2.64;71.67;99564.03;5142837;27;20073;-65
2021/12/02 04:17:43;;;;;;;32.00;9.90;;;;;;;2.68;71.69;99559.41;5143044;27;20035;-68
2021/12/02 04:20:14;;;;;;;102.33;23.80;;;;;;;2.83;71.26;99558.22;5146717;27;20039;-63
2021/12/02 04:22:41;;;;;;;74.70;37.23;;;;;;;2.89;70.70;99555.13;5146322;27;20096;-66
2021/12/02 04:25:07;;;;;;;38.87;18.10;;;;;;;3.01;69.55;99550.75;5146425;27;20336;-62
2021/12/02 04:27:33;;;;;;;39.20;17.13;;;;;;;3.08;70.08;99559.78;5146166;27;20280;-66
2021/12/02 04:29:59;;;;;;;41.37;17.27;;;;;;;3.05;69.84;99554.78;5146527;27;20098;-66
2021/12/02 04:32:25;;;;;;;27.93;11.60;;;;;;;3.08;70.12;99557.16;5145860;27;20031;-63
2021/12/02 04:34:50;;;;;;;23.77;10.70;;;;;;;3.34;68.41;99553.38;5127796;27;20061;-62
2021/12/02 04:37:16;;;;;;;23.00;10.20;;;;;;;3.23;68.17;99553.38;5145946;27;20035;-66
2021/12/02 04:39:41;;;;;;;28.43;11.93;;;;;;;3.26;68.18;99554.94;5146083;27;20328;-62
2021/12/02 04:42:07;;;;;;;21.63;10.77;;;;;;;3.34;68.34;99558.63;5145749;27;20325;-63
2021/12/02 04:44:32;;;;;;;23.23;10.60;;;;;;;3.28;68.68;99556.47;5145927;27;20404;-66
2021/12/02 04:46:58;;;;;;;25.60;11.80;;;;;;;3.37;68.03;99557.53;5145724;27;20027;-63
2021/12/02 04:49:23;;;;;;;22.60;11.40;;;;;;;3.44;67.16;99556.94;5145881;27;20231;-63
2021/12/02 04:51:49;;;;;;;29.87;14.30;;;;;;;3.23;68.00;99557.78;5145257;27;20084;-62
2021/12/02 04:54:15;;;;;;;35.40;16.50;;;;;;;2.79;69.52;99555.00;5145734;27;20136;-62
2021/12/02 04:56:40;;;;;;;68.10;37.17;;;;;;;2.93;70.37;99555.75;5145584;27;20386;-65
2021/12/02 04:59:06;;;;;;;40.50;21.67;;;;;;;3.22;68.72;99553.50;5145712;27;20041;-62
2021/12/02 05:01:31;;;;;;;39.00;18.80;;;;;;;3.03;67.75;99522.69;5145612;27;20023;-66
2021/12/02 05:03:57;;;;;;;29.77;14.00;;;;;;;3.30;66.45;99557.19;5145493;27;20035;-63
2021/12/02 05:06:22;;;;;;;30.83;13.40;;;;;;;3.25;65.31;99554.09;5145485;27;20365;-62
2021/12/02 05:08:48;;;;;;;34.20;14.10;;;;;;;3.17;65.68;99554.69;5145466;27;20043;-65
2021/12/02 05:11:13;;;;;;;35.33;14.80;;;;;;;3.08;66.88;99549.31;5145612;27;20084;-62
2021/12/02 05:13:39;;;;;;;46.87;21.83;;;;;;;3.14;67.76;99560.16;5145500;27;20284;-63
2021/12/02 05:16:04;;;;;;;61.17;26.83;;;;;;;3.12;68.51;99559.47;5145517;27;20309;-62
2021/12/02 05:18:30;;;;;;;53.87;21.33;;;;;;;3.22;68.38;99566.59;5145300;27;20392;-66
2021/12/02 05:20:57;;;;;;;37.00;16.97;;;;;;;3.20;68.66;99570.16;5144915;27;20088;-62
2021/12/02 05:23:22;;;;;;;32.93;15.93;;;;;;;3.19;66.54;99560.66;5145017;27;20355;-66
2021/12/02 05:25:48;;;;;;;30.70;13.83;;;;;;;3.13;67.86;99562.91;5145129;27;20031;-63
2021/12/02 05:28:18;;;;;;;44.30;15.77;;;;;;;3.01;66.52;99548.97;5144843;27;20031;-62
2021/12/02 05:30:44;;;;;;;47.70;17.67;;;;;;;2.92;65.13;99561.91;5144830;27;20023;-62
2021/12/02 05:33:10;;;;;;;40.20;16.97;;;;;;;2.80;68.66;99572.38;5126538;27;20035;-62
2021/12/02 05:35:35;;;;;;;35.87;16.20;;;;;;;2.85;68.79;99569.41;5126484;27;20340;-62
2021/12/02 05:38:01;;;;;;;43.57;18.00;;;;;;;2.92;69.09;99572.38;5144971;27;20046;-62
2021/12/02 05:40:26;;;;;;;40.73;18.20;;;;;;;3.03;69.60;99562.75;5144902;27;20030;-66
2021/12/02 05:42:52;;;;;;;33.87;14.90;;;;;;;2.79;68.54;99572.50;5144659;27;20045;-65
2021/12/02 05:45:17;;;;;;;40.93;16.80;;;;;;;2.69;69.19;99567.13;5144774;27;20084;-64
2021/12/02 05:47:43;;;;;;;43.67;17.30;;;;;;;2.72;69.40;99577.34;5126348;27;20027;-66
2021/12/02 05:50:09;;;;;;;53.67;19.47;;;;;;;2.87;68.36;99573.56;5144793;27;20090;-62
2021/12/02 05:52:34;;;;;;;58.67;25.20;;;;;;;2.54;68.68;99569.13;5144311;27;20103;-68
2021/12/02 05:55:00;;;;;;;90.70;32.23;;;;;;;2.50;69.66;99572.06;5144393;27;20031;-65
2021/12/02 05:57:25;;;;;;;80.23;35.77;;;;;;;2.61;69.55;99571.25;5144407;27;20099;-65
2021/12/02 05:59:50;;;;;;;66.17;29.10;;;;;;;2.38;70.29;99575.59;5126111;27;20023;-68
2021/12/02 06:02:16;;;;;;;49.53;24.97;;;;;;;2.39;69.40;99569.44;5144143;27;20046;-64
2021/12/02 06:04:43;;;;;;;55.30;23.63;;;;;;;2.32;70.81;99569.06;5126255;27;20062;-64
2021/12/02 06:07:09;;;;;;;42.87;18.97;;;;;;;2.50;70.97;99578.13;5144119;27;20035;-65
2021/12/02 06:09:34;;;;;;;58.27;23.50;;;;;;;2.68;71.16;99575.91;5144274;27;20086;-65
2021/12/02 06:12:00;;;;;;;48.93;23.33;;;;;;;2.83;71.41;99577.38;5144587;27;20042;-65
2021/12/02 06:14:25;;;;;;;73.27;34.50;;;;;;;2.97;71.49;99578.09;5144094;27;20099;-66
2021/12/02 06:16:51;;;;;;;73.73;35.83;;;;;;;2.97;70.49;99555.38;5144089;27;20031;-62
2021/12/02 06:19:16;;;;;;;65.33;31.03;;;;;;;3.32;69.51;99572.78;5125711;27;20369;-64
2021/12/02 06:21:42;;;;;;;66.13;30.40;;;;;;;3.36;70.07;99567.19;5143794;27;20034;-66
2021/12/02 06:24:08;;;;;;;58.20;27.00;;;;;;;3.41;70.35;99578.13;5144018;27;20035;-65
2021/12/02 06:26:34;;;;;;;57.47;27.57;;;;;;;3.63;69.99;99579.88;5143804;27;20031;-63
2021/12/02 06:29:00;;;;;;;50.93;26.20;;;;;;;3.73;70.28;99575.56;5144288;27;20088;-62
2021/12/02 06:31:26;;;;;;;46.03;22.97;;;;;;;3.87;70.71;99578.84;5143574;27;20086;-66
2021/12/02 06:33:51;;;;;;;37.33;17.87;;;;;;;3.87;71.19;99576.22;5143933;27;20328;-66
2021/12/02 06:36:16;;;;;;;31.23;16.23;;;;;;;4.00;70.58;99569.06;5143763;27;20019;-62
2021/12/02 06:38:42;;;;;;;35.40;17.30;;;;;;;3.92;70.94;99563.59;5143840;27;20039;-66
2021/12/02 06:41:08;;;;;;;34.57;15.33;;;;;;;3.83;72.28;99571.25;5142930;27;20022;-63
2021/12/02 06:43:34;;;;;;;32.37;15.90;;;;;;;3.66;72.62;99568.31;5143651;27;20031;-62
2021/12/02 06:45:59;;;;;;;31.53;15.97;;;;;;;3.41;73.81;99572.03;5143515;27;20038;-65
2021/12/02 06:48:25;;;;;;;53.43;26.90;;;;;;;3.40;74.75;99575.63;5143711;27;20031;-62
2021/12/02 06:50:51;;;;;;;70.57;33.10;;;;;;;3.48;75.33;99568.00;5143336;27;20267;-66
2021/12/02 06:53:17;;;;;;;62.17;27.37;;;;;;;3.40;75.49;99571.22;5143443;27;20099;-65
2021/12/02 06:55:43;;;;;;;58.17;25.50;;;;;;;3.55;75.06;99561.31;5143587;27;20123;-66
2021/12/02 06:58:09;;;;;;;58.40;26.33;;;;;;;3.94;74.68;99570.38;5143431;27;20214;-62
2021/12/02 07:00:35;;;;;;;65.77;26.23;;;;;;;4.01;74.51;99566.31;5143428;27;20031;-62
2021/12/02 07:03:01;;;;;;;58.57;24.90;;;;;;;4.25;74.73;99573.16;5143239;27;20042;-62
2021/12/02 07:05:29;;;;;;;53.70;24.67;;;;;;;4.36;74.89;99565.22;5143470;27;20080;-62
2021/12/02 07:07:55;;;;;;;59.33;26.43;;;;;;;4.31;74.45;99554.28;5143301;27;20039;-66
2021/12/02 07:10:25;;;;;;;58.00;26.17;;;;;;;4.49;74.21;99556.22;5143509;27;20061;-66
2021/12/02 07:12:55;;;;;;;54.57;23.67;;;;;;;4.80;73.72;99557.09;5143227;27;20042;-62
2021/12/02 07:15:26;;;;;;;52.43;22.87;;;;;;;4.93;74.05;99556.06;5143307;27;20321;-63
2021/12/02 07:17:56;;;;;;;42.25;18.48;;;;;;;5.11;73.50;99562.34;5143526;27;20035;-62
2021/12/02 07:20:27;;;;;;;31.30;15.52;;;;;;;5.36;72.64;99563.72;5143297;27;20038;-62
2021/12/02 07:22:53;;;;;;;22.30;10.63;;;;;;;5.36;71.09;99567.19;5143035;27;20046;-62
2021/12/02 07:25:18;;;;;;;22.27;10.35;;;;;;;5.31;72.21;99568.53;5142944;27;20259;-65
2021/12/02 07:27:44;;;;;;;21.70;10.85;;;;;;;5.45;72.03;99570.78;5143177;27;20058;-62
2021/12/02 07:30:10;;;;;;;17.98;8.57;;;;;;;5.66;71.31;99566.28;5142741;27;20232;-66
2021/12/02 07:32:40;;;;;;;19.35;9.00;;;;;;;5.99;69.81;99577.44;5142118;27;20035;-66
2021/12/02 07:35:14;;;;;;;19.85;8.73;;;;;;;6.32;68.68;99582.31;5142338;27;20035;-66
2021/12/02 07:37:42;;;;;;;20.23;8.88;;;;;;;6.47;69.08;99577.47;5142355;27;20045;-63
2021/12/02 07:40:08;;;;;;;16.02;8.63;;;;;;;6.61;69.39;99576.19;5142249;27;20031;-66
2021/12/02 07:42:34;;;;;;;19.60;9.63;;;;;;;6.89;68.53;99577.09;5142029;27;20035;-62
2021/12/02 07:45:00;;;;;;;17.65;9.38;;;;;;;7.23;66.83;99565.06;5123908;27;20037;-63
2021/12/02 07:47:25;;;;;;;25.08;12.27;;;;;;;7.42;66.56;99568.63;5142172;27;20035;-66
2021/12/02 07:49:51;;;;;;;23.63;11.20;;;;;;;7.56;65.26;99568.13;5142004;27;20283;-66
2021/12/02 07:52:23;;;;;;;43.42;20.02;;;;;;;7.85;63.34;99568.78;5143220;27;20039;-66
2021/12/02 07:54:51;;;;;;;44.10;21.20;;;;;;;8.09;62.78;99562.94;5145980;27;20037;-63
2021/12/02 07:57:17;;;;;;;41.55;19.58;;;;;;;8.01;63.52;99545.22;5127350;27;20023;-63
2021/12/02 07:59:42;;;;;;;48.30;21.33;;;;;;;8.26;62.66;99548.09;5146023;27;20022;-63
2021/12/02 08:02:15;;;;;;;48.08;21.60;;;;;;;8.32;61.96;99548.34;5145521;27;20072;-63
2021/12/02 08:04:40;;;;;;;50.38;23.98;;;;;;;8.76;60.05;99545.72;5145890;27;20023;-62
2021/12/02 08:07:06;;;;;;;60.85;27.67;;;;;;;8.90;59.66;99547.78;5145533;27;20460;-62
2021/12/02 08:09:31;;;;;;;61.75;28.40;;;;;;;8.96;59.12;99543.69;5147735;27;20019;-63
2021/12/02 08:11:59;;;;;;;56.78;27.60;;;;;;;8.81;59.47;99545.25;5166380;27;20035;-66
2021/12/02 08:14:25;;;;;;;67.55;31.75;;;;;;;8.88;60.09;99547.09;5166265;27;20031;-66
2021/12/02 08:16:51;;;;;;;74.03;35.28;;;;;;;8.90;59.82;99545.16;5147512;27;20361;-66
2021/12/02 08:19:16;;;;;;;40.80;21.85;;;;;;;9.14;59.96;99538.34;5166202;27;20030;-63
2021/12/02 08:21:42;;;;;;;66.72;29.92;;;;;;;9.25;59.13;99538.88;5147145;27;20038;-62
2021/12/02 08:24:07;;;;;;;66.07;31.65;;;;;;;9.26;59.01;99540.53;5166044;27;20039;-63
2021/12/02 08:26:33;;;;;;;52.75;24.50;;;;;;;9.46;58.54;99535.84;5166165;27;20043;-66
2021/12/02 08:28:59;;;;;;;55.28;26.00;;;;;;;8.86;61.76;99545.59;5147478;27;20046;-63
2021/12/02 08:31:25;;;;;;;52.45;24.50;;;;;;;8.67;62.41;99557.19;5165885;27;20225;-63
2021/12/02 08:33:52;;;;;;;46.17;20.98;;;;;;;8.75;61.95;99559.06;5147446;27;20070;-66
2021/12/02 08:36:21;;;;;;;49.72;24.05;;;;;;;8.64;62.21;99541.69;5165659;27;20054;-66
2021/12/02 08:38:47;;;;;;;59.85;26.98;;;;;;;8.76;62.65;99544.88;5165980;27;20037;-66
2021/12/02 08:41:17;;;;;;;58.10;28.27;;;;;;;8.83;62.98;99530.91;5165895;27;20091;-66
2021/12/02 08:43:42;;;;;;;61.40;28.15;;;;;;;8.53;63.96;99537.47;5165706;27;20114;-63
2021/12/02 08:46:08;;;;;;;61.92;29.67;;;;;;;8.58;63.96;99529.91;5165968;27;20279;-62
2021/12/02 08:48:33;;;;;;;67.72;30.20;;;;;;;8.55;63.42;99530.22;5165732;27;20372;-62
2021/12/02 08:50:59;;;;;;;50.58;25.33;;;;;;;8.49;63.43;99532.66;5165304;27;20058;-66
2021/12/02 08:53:24;;;;;;;50.63;24.08;;;;;;;8.49;64.30;99527.38;5165612;27;20062;-66
2021/12/02 08:55:50;;;;;;;55.08;24.15;;;;;;;8.45;64.58;99512.84;5165264;27;20094;-66
2021/12/02 08:58:16;;;;;;;69.75;27.05;;;;;;;8.63;64.00;99511.81;5165551;27;20332;-62
2021/12/02 09:00:41;;;;;;;64.38;30.00;;;;;;;8.59;64.52;99501.72;5165175;27;20038;-66
2021/12/02 09:03:12;;;;;;;62.63;27.27;;;;;;;8.30;66.40;99501.94;5164572;27;20098;-63
2021/12/02 09:05:38;;;;;;;61.13;28.08;;;;;;;8.62;65.26;99493.50;5146519;27;20018;-64
2021/12/02 09:08:04;;;;;;;63.15;29.92;;;;;;;8.86;64.34;99491.00;5165513;27;20035;-66
2021/12/02 09:10:30;;;;;;;63.33;28.55;;;;;;;8.64;64.61;99488.88;5164958;27;20050;-63
2021/12/02 09:12:56;;;;;;;65.70;30.20;;;;;;;8.94;63.06;99488.38;5165228;27;20093;-66
2021/12/02 09:15:24;;;;;;;70.97;28.50;;;;;;;9.34;62.20;99476.31;5165255;27;20204;-66
2021/12/02 09:17:50;;;;;;;54.42;27.95;;;;;;;9.10;62.63;99455.13;5165111;27;20030;-66
2021/12/02 09:20:16;;;;;;;58.75;27.98;;;;;;;9.19;62.54;99480.56;5143052;27;20038;-66
2021/12/02 09:22:46;;;;;;;50.92;24.73;;;;;;;9.34;62.20;99472.84;5144052;27;20056;-63
2021/12/02 09:25:14;;;;;;;47.65;23.50;;;;;;;9.58;61.56;99470.31;5144454;27;20075;-63
2021/12/02 09:27:40;;;;;;;38.28;20.33;;;;;;;9.53;62.48;99469.97;5144602;27;20035;-63
2021/12/02 09:30:07;;;;;;;38.55;17.15;;;;;;;9.51;61.94;99464.84;5144215;27;20031;-63
2021/12/02 09:32:33;;;;;;;37.33;14.88;;;;;;;9.51;61.30;99456.91;5143983;27;20068;-66
2021/12/02 09:35:00;;;;;;;35.63;17.05;;;;;;;9.37;61.85;99457.53;5143864;27;20027;-63
2021/12/02 09:37:26;;;;;;;34.67;17.38;;;;;;;9.50;60.78;99457.91;5143994;27;20102;-66
2021/12/02 09:39:51;;;;;;;33.45;16.70;;;;;;;9.75;60.46;99456.13;5144357;27;20045;-66
2021/12/02 09:42:16;;;;;;;27.00;14.27;;;;;;;9.75;60.38;99447.34;5143786;27;20034;-65
2021/12/02 09:44:47;;;;;;;35.17;15.30;;;;;;;9.71;60.69;99443.41;5143984;27;20076;-66
2021/12/02 09:47:13;;;;;;;39.85;16.17;;;;;;;9.82;60.19;99441.25;5143867;27;20235;-63
2021/12/02 09:49:39;;;;;;;27.13;15.10;;;;;;;9.78;59.71;99426.72;5142211;27;20033;-66
2021/12/02 09:52:09;;;;;;;33.85;14.85;;;;;;;10.03;58.78;99424.06;5143242;27;20106;-66
2021/12/02 09:54:45;;;;;;;27.10;15.80;;;;;;;9.78;60.53;99424.06;5143855;27;20383;-63
2021/12/02 09:57:17;;;;;;;33.53;16.30;;;;;;;9.98;59.98;99415.78;5143560;27;20027;-66
2021/12/02 10:02:15;;;;;;;46.72;19.48;;;;;;;10.00;60.02;99408.53;5143003;27;20083;-66
2021/12/02 10:04:51;;;;;;;48.80;21.33;;;;;;;9.91;61.67;99413.00;5143710;27;20034;-66
2021/12/02 10:07:22;;;;;;;45.55;22.85;;;;;;;10.20;60.88;99413.31;5143350;27;20043;-66
2021/12/02 10:13:00;;;;;;;47.20;24.38;;;;;;;10.06;61.55;99408.69;5143307;27;20321;-63
2021/12/02 10:15:27;;;;;;;40.08;21.13;;;;;;;10.42;58.87;99389.81;5142985;27;20027;-62
2021/12/02 10:17:53;;;;;;;47.78;23.02;;;;;;;10.20;60.42;99386.88;5143346;27;20027;-63
2021/12/02 10:20:25;;;;;;;39.97;20.75;;;;;;;10.19;60.11;99376.41;5143276;27;20023;-63
2021/12/02 10:23:14;;;;;;;39.08;20.50;;;;;;;9.87;60.74;99382.59;5142907;27;20214;-62
2021/12/02 10:25:46;;;;;;;48.92;23.02;;;;;;;9.81;61.24;99373.50;5143050;27;20023;-63
2021/12/02 10:28:14;;;;;;;46.40;22.45;;;;;;;9.96;61.05;99368.34;5143128;27;20039;-62
2021/12/02 10:30:49;;;;;;;40.88;20.27;;;;;;;9.97;60.88;99362.06;5143106;27;20027;-65
2021/12/02 10:33:30;;;;;;;41.33;19.92;;;;;;;9.96;61.03;99360.41;5142934;27;20102;-63
2021/12/02 10:35:56;;;;;;;33.67;17.38;;;;;;;10.04;60.38;99349.81;5162128;27;20038;-63
2021/12/02 10:38:36;;;;;;;38.60;18.65;;;;;;;10.00;60.60;99353.81;5145229;27;20275;-66
2021/12/02 10:41:10;;;;;;;33.67;16.92;;;;;;;10.05;60.70;99350.66;5163383;27;20034;-66
2021/12/02 10:44:04;;;;;;;36.00;17.83;;;;;;;10.08;60.81;99343.22;5163939;27;20041;-63
2021/12/02 10:46:30;;;;;;;36.47;17.83;;;;;;;10.16;59.83;99339.72;5163701;27;20253;-62
2021/12/02 10:48:56;;;;;;;34.92;16.95;;;;;;;10.14;59.13;99342.53;5163358;27;20095;-66
2021/12/02 10:51:43;;;;;;;25.92;13.25;;;;;;;10.32;57.91;99341.53;5162980;27;20042;-62
2021/12/02 10:54:16;;;;;;;29.00;13.80;;;;;;;10.20;57.73;99341.88;5144729;27;20026;-63
2021/12/02 10:56:46;;;;;;;20.00;8.93;;;;;;;10.26;55.94;99335.09;5163554;27;20042;-66
2021/12/02 10:59:32;;;;;;;20.38;9.43;;;;;;;10.32;57.23;99326.47;5163200;27;20030;-66
2021/12/02 11:02:05;;;;;;;17.02;9.05;;;;;;;10.27;57.01;99334.09;5162851;27;20232;-62
2021/12/02 11:04:43;;;;;;;15.68;7.53;;;;;;;10.18;56.96;99322.69;5163200;27;20030;-66
2021/12/02 11:07:20;;;;;;;15.10;7.03;;;;;;;10.06;57.14;99315.28;5163047;27;20056;-62
2021/12/02 11:09:46;;;;;;;14.02;7.50;;;;;;;10.28;57.19;99303.16;5163214;27;20043;-62
2021/12/02 11:12:18;;;;;;;13.55;8.13;;;;;;;10.63;56.80;99313.31;5162918;27;20049;-65
2021/12/02 11:14:58;;;;;;;15.68;8.70;;;;;;;10.43;57.62;99304.13;5163302;27;20042;-66
2021/12/02 11:17:29;;;;;;;18.17;10.00;;;;;;;10.56;57.33;99296.47;5162873;27;20022;-62
2021/12/02 11:19:56;;;;;;;18.35;9.30;;;;;;;10.59;57.85;99305.88;5162863;27;20045;-65
2021/12/02 11:22:22;;;;;;;16.15;7.50;;;;;;;10.62;56.59;99293.13;5162693;27;20110;-66
2021/12/02 11:24:49;;;;;;;15.32;7.53;;;;;;;10.92;55.53;99295.94;5163015;27;20037;-63
2021/12/02 11:27:26;;;;;;;12.98;7.28;;;;;;;10.74;56.79;99283.78;5164469;27;20046;-63
2021/12/02 11:30:02;;;;;;;15.95;7.32;;;;;;;10.77;57.81;99290.56;5167144;27;20038;-63
2021/12/02 11:32:30;;;;;;;14.60;7.85;;;;;;;11.07;57.17;99291.53;5167078;27;20023;-63
2021/12/02 11:35:31;;;;;;;14.55;7.35;;;;;;;10.80;57.38;99283.09;5167302;27;20035;-66
2021/12/02 11:38:19;;;;;;;14.60;7.20;;;;;;;11.13;55.25;99278.41;5135140;27;20046;-66
2021/12/02 11:40:57;;;;;;;12.80;7.38;;;;;;;11.09;56.63;99276.28;5167211;27;20067;-63
2021/12/02 11:43:37;;;;;;;13.05;7.00;;;;;;;11.05;56.35;99269.69;5167068;27;20220;-66